Forbes Field Topeka US
ICAO: KFOE
IATA: FOE
Category: Medium
Scheduled Services: No

Elevation: 1078 ft
TransAlt. 18000 ft.

Airport Communications:
KANSAS CITY CNTR:123.8
ATIS:128.25
CTAF:120.8
GND:121.7
ARNG OPS:41.7
ANG OPS:28.65
WICHITA RDO:122.45
TWR:120.8
UNICOM:122.95

KFOE Zoom In..

If you have problems with the map follow the link
https://www.worldairports.se/pages/airport.php?
ICAO=KFOE

Runways:

(A) RW 03 length 7001 ft width 150 ft
---- / hdg 35

(B) RW 13 length 12803 ft width 200 ft
---- / hdg 132

(C) RW 21 length 7001 ft width 150 ft
---- / hdg 215

(D) RW 31 length 12803 ft width 200 ft
ILS 110.10 / hdg 312

Location; KFOE
Day. 05 / Time. 21.53 Zulu
* Altimeter: 29.84
* Temperature: 16° c. 60.8°f.
* Wind from: 170° Speed 04 kn.
Dewpoint: 02° c.
Visibility: 10 Statute Miles.
Clouds: Clear (automated report).

KFOE 052153Z 17004KT 10SM CLR 16/02 A2984 RMK AO2 SLP106 T01560022


Wind From 170°
Speed 04 kn.

 
 
jpsmedia worldairports.se 2019   terms of use